sensor_id;sensor_type;location;lat;lon;timestamp;pressure;altitude;pressure_sealevel;temperature;humidity
24302;BME280;12421;49.732;20.078;2023-03-16T00:04:09;96892.15;;;1.71;69.04
24302;BME280;12421;49.732;20.078;2023-03-16T00:14:12;96895.20;;;1.84;68.32
24302;BME280;12421;49.732;20.078;2023-03-16T00:24:16;96894.67;;;1.92;67.95
24302;BME280;12421;49.732;20.078;2023-03-16T00:34:20;96901.89;;;1.89;67.48
24302;BME280;12421;49.732;20.078;2023-03-16T00:44:24;96908.52;;;1.85;67.73
24302;BME280;12421;49.732;20.078;2023-03-16T00:54:28;96913.95;;;1.79;67.45
24302;BME280;12421;49.732;20.078;2023-03-16T01:04:31;96926.75;;;1.64;67.42
24302;BME280;12421;49.732;20.078;2023-03-16T01:14:36;96939.71;;;1.56;67.55
24302;BME280;12421;49.732;20.078;2023-03-16T01:24:41;96945.56;;;1.42;67.39
24302;BME280;12421;49.732;20.078;2023-03-16T01:34:48;96949.75;;;1.22;67.85
24302;BME280;12421;49.732;20.078;2023-03-16T01:44:58;96953.20;;;1.01;68.52
24302;BME280;12421;49.732;20.078;2023-03-16T01:55:13;96955.77;;;0.94;69.18
24302;BME280;12421;49.732;20.078;2023-03-16T02:05:23;96963.10;;;1.04;69.70
24302;BME280;12421;49.732;20.078;2023-03-16T02:15:30;96972.67;;;1.06;70.01
24302;BME280;12421;49.732;20.078;2023-03-16T02:36:03;96995.26;;;0.66;70.31
24302;BME280;12421;49.732;20.078;2023-03-16T02:46:07;97000.13;;;0.44;71.04
24302;BME280;12421;49.732;20.078;2023-03-16T02:56:11;97008.95;;;0.27;71.27
24302;BME280;12421;49.732;20.078;2023-03-16T03:06:15;97029.77;;;0.08;71.96
24302;BME280;12421;49.732;20.078;2023-03-16T03:16:18;97038.74;;;-0.15;72.17
24302;BME280;12421;49.732;20.078;2023-03-16T03:26:23;97046.02;;;-0.34;72.29
24302;BME280;12421;49.732;20.078;2023-03-16T03:36:27;97057.13;;;-0.53;72.40
24302;BME280;12421;49.732;20.078;2023-03-16T03:46:30;97068.55;;;-0.62;72.88
24302;BME280;12421;49.732;20.078;2023-03-16T03:56:34;97081.55;;;-0.84;73.69
24302;BME280;12421;49.732;20.078;2023-03-16T04:06:44;97088.48;;;-1.02;73.50
24302;BME280;12421;49.732;20.078;2023-03-16T04:16:48;97092.61;;;-1.17;74.20
24302;BME280;12421;49.732;20.078;2023-03-16T04:26:51;97104.98;;;-1.27;74.56
24302;BME280;12421;49.732;20.078;2023-03-16T04:36:57;97116.29;;;-1.19;74.66
24302;BME280;12421;49.732;20.078;2023-03-16T04:47:02;97129.88;;;-1.15;75.19
24302;BME280;12421;49.732;20.078;2023-03-16T04:57:11;97132.00;;;-1.13;75.66
24302;BME280;12421;49.732;20.078;2023-03-16T05:07:18;97135.48;;;-1.03;75.75
24302;BME280;12421;49.732;20.078;2023-03-16T05:17:24;97145.80;;;-0.85;75.57
24302;BME280;12421;49.732;20.078;2023-03-16T05:27:28;97149.21;;;-0.67;75.39
24302;BME280;12421;49.732;20.078;2023-03-16T05:37:33;97154.61;;;-0.61;75.26
24302;BME280;12421;49.732;20.078;2023-03-16T05:47:42;97163.84;;;-0.63;75.19
24302;BME280;12421;49.732;20.078;2023-03-16T05:57:46;97176.30;;;-0.71;75.31
24302;BME280;12421;49.732;20.078;2023-03-16T06:07:50;97186.13;;;-0.56;75.35
24302;BME280;12421;49.732;20.078;2023-03-16T06:17:55;97188.89;;;-0.38;75.54
24302;BME280;12421;49.732;20.078;2023-03-16T06:27:59;97197.27;;;-0.40;75.17
24302;BME280;12421;49.732;20.078;2023-03-16T06:38:04;97211.64;;;-0.48;75.45
24302;BME280;12421;49.732;20.078;2023-03-16T06:48:22;97224.02;;;-0.39;75.71
24302;BME280;12421;49.732;20.078;2023-03-16T06:58:25;97224.93;;;0.07;75.79
24302;BME280;12421;49.732;20.078;2023-03-16T07:08:29;97230.73;;;1.41;75.41
24302;BME280;12421;49.732;20.078;2023-03-16T07:18:33;97236.33;;;3.01;71.88
24302;BME280;12421;49.732;20.078;2023-03-16T07:28:37;97239.79;;;4.23;69.30
24302;BME280;12421;49.732;20.078;2023-03-16T07:38:41;97238.29;;;5.56;67.45
24302;BME280;12421;49.732;20.078;2023-03-16T07:48:46;97249.09;;;6.40;63.44
24302;BME280;12421;49.732;20.078;2023-03-16T07:58:51;97250.85;;;6.09;61.16
24302;BME280;12421;49.732;20.078;2023-03-16T08:08:55;97249.96;;;5.69;60.51
24302;BME280;12421;49.732;20.078;2023-03-16T08:19:04;97254.96;;;5.29;60.09
24302;BME280;12421;49.732;20.078;2023-03-16T08:29:08;97265.80;;;4.86;59.83
24302;BME280;12421;49.732;20.078;2023-03-16T08:39:12;97271.14;;;4.95;60.99
24302;BME280;12421;49.732;20.078;2023-03-16T08:49:19;97275.46;;;5.03;58.87
24302;BME280;12421;49.732;20.078;2023-03-16T08:59:29;97279.52;;;4.96;58.21
24302;BME280;12421;49.732;20.078;2023-03-16T09:09:33;97277.86;;;5.47;56.38
24302;BME280;12421;49.732;20.078;2023-03-16T09:19:38;97289.45;;;5.65;55.08
24302;BME280;12421;49.732;20.078;2023-03-16T09:30:05;97303.16;;;5.15;54.49
24302;BME280;12421;49.732;20.078;2023-03-16T09:40:23;97297.81;;;5.41;53.49
24302;BME280;12421;49.732;20.078;2023-03-16T09:50:28;97291.35;;;5.77;53.24
24302;BME280;12421;49.732;20.078;2023-03-16T10:01:31;97298.81;;;6.12;52.61
24302;BME280;12421;49.732;20.078;2023-03-16T10:11:43;97310.45;;;5.72;52.78
24302;BME280;12421;49.732;20.078;2023-03-16T10:21:53;97301.82;;;6.16;51.88
24302;BME280;12421;49.732;20.078;2023-03-16T10:32:10;97311.67;;;6.23;49.87
24302;BME280;12421;49.732;20.078;2023-03-16T10:42:17;97319.28;;;6.33;50.38
24302;BME280;12421;49.732;20.078;2023-03-16T10:52:43;97321.31;;;6.58;48.21
24302;BME280;12421;49.732;20.078;2023-03-16T11:02:50;97319.98;;;6.62;47.18
24302;BME280;12421;49.732;20.078;2023-03-16T11:13:01;97318.56;;;6.77;48.93
24302;BME280;12421;49.732;20.078;2023-03-16T11:23:10;97304.30;;;7.22;49.65
24302;BME280;12421;49.732;20.078;2023-03-16T11:33:21;97305.00;;;7.43;47.06
24302;BME280;12421;49.732;20.078;2023-03-16T12:03:59;97303.68;;;7.11;46.46
24302;BME280;12421;49.732;20.078;2023-03-16T12:24:24;97300.48;;;6.85;47.55
24302;BME280;12421;49.732;20.078;2023-03-16T12:34:57;97302.90;;;7.02;46.08
24302;BME280;12421;49.732;20.078;2023-03-16T12:45:12;97320.34;;;6.98;46.25
24302;BME280;12421;49.732;20.078;2023-03-16T12:55:39;97317.48;;;6.75;46.78
24302;BME280;12421;49.732;20.078;2023-03-16T13:05:52;97312.09;;;6.60;47.20
24302;BME280;12421;49.732;20.078;2023-03-16T13:16:03;97323.23;;;6.13;48.73
24302;BME280;12421;49.732;20.078;2023-03-16T13:26:11;97312.93;;;6.27;48.98
24302;BME280;12421;49.732;20.078;2023-03-16T13:36:16;97313.23;;;6.52;48.58
24302;BME280;12421;49.732;20.078;2023-03-16T13:46:25;97323.77;;;6.43;49.01
24302;BME280;12421;49.732;20.078;2023-03-16T13:56:31;97322.17;;;6.41;49.04
24302;BME280;12421;49.732;20.078;2023-03-16T14:06:35;97326.66;;;6.37;48.77
24302;BME280;12421;49.732;20.078;2023-03-16T14:16:39;97323.04;;;6.41;48.28
24302;BME280;12421;49.732;20.078;2023-03-16T14:26:45;97326.54;;;6.56;48.49
24302;BME280;12421;49.732;20.078;2023-03-16T14:36:49;97330.00;;;7.05;48.14
24302;BME280;12421;49.732;20.078;2023-03-16T14:46:53;97340.00;;;6.92;48.15
24302;BME280;12421;49.732;20.078;2023-03-16T14:57:03;97344.59;;;6.81;47.84
24302;BME280;12421;49.732;20.078;2023-03-16T15:07:33;97345.36;;;6.71;48.15
24302;BME280;12421;49.732;20.078;2023-03-16T15:17:38;97348.71;;;6.30;47.74
24302;BME280;12421;49.732;20.078;2023-03-16T15:27:42;97355.88;;;5.91;48.63
24302;BME280;12421;49.732;20.078;2023-03-16T15:37:46;97357.70;;;5.75;47.96
24302;BME280;12421;49.732;20.078;2023-03-16T15:47:51;97356.23;;;5.47;48.17
24302;BME280;12421;49.732;20.078;2023-03-16T15:57:59;97367.15;;;5.22;48.07
24302;BME280;12421;49.732;20.078;2023-03-16T16:08:04;97369.83;;;5.06;49.81
24302;BME280;12421;49.732;20.078;2023-03-16T16:18:26;97379.48;;;4.73;50.50
24302;BME280;12421;49.732;20.078;2023-03-16T16:28:33;97379.30;;;4.30;51.02
24302;BME280;12421;49.732;20.078;2023-03-16T16:38:36;97394.35;;;3.86;52.61
24302;BME280;12421;49.732;20.078;2023-03-16T16:48:48;97408.73;;;3.35;54.44
24302;BME280;12421;49.732;20.078;2023-03-16T16:58:54;97421.53;;;2.80;56.04
24302;BME280;12421;49.732;20.078;2023-03-16T17:08:59;97429.64;;;2.23;57.71
24302;BME280;12421;49.732;20.078;2023-03-16T17:19:04;97441.58;;;1.61;59.17
24302;BME280;12421;49.732;20.078;2023-03-16T17:39:25;97456.98;;;0.56;61.99
24302;BME280;12421;49.732;20.078;2023-03-16T17:49:29;97464.68;;;0.12;63.29
24302;BME280;12421;49.732;20.078;2023-03-16T17:59:33;97478.31;;;-0.24;64.08
24302;BME280;12421;49.732;20.078;2023-03-16T18:09:38;97474.75;;;-0.48;65.10
24302;BME280;12421;49.732;20.078;2023-03-16T18:19:43;97476.92;;;-0.58;65.85
24302;BME280;12421;49.732;20.078;2023-03-16T18:29:50;97486.40;;;-0.63;66.26
24302;BME280;12421;49.732;20.078;2023-03-16T18:39:54;97495.21;;;-0.87;66.77
24302;BME280;12421;49.732;20.078;2023-03-16T18:49:59;97501.53;;;-1.08;67.68
24302;BME280;12421;49.732;20.078;2023-03-16T19:00:03;97516.28;;;-1.33;68.06
24302;BME280;12421;49.732;20.078;2023-03-16T19:20:30;97530.72;;;-1.72;69.39
24302;BME280;12421;49.732;20.078;2023-03-16T19:30:34;97544.10;;;-1.84;69.54
24302;BME280;12421;49.732;20.078;2023-03-16T19:40:39;97551.31;;;-1.87;69.96
24302;BME280;12421;49.732;20.078;2023-03-16T19:50:43;97557.72;;;-1.97;70.00
24302;BME280;12421;49.732;20.078;2023-03-16T20:00:46;97569.54;;;-2.16;70.53
24302;BME280;12421;49.732;20.078;2023-03-16T20:10:55;97572.31;;;-2.44;70.71
24302;BME280;12421;49.732;20.078;2023-03-16T20:21:01;97580.14;;;-2.66;71.51
24302;BME280;12421;49.732;20.078;2023-03-16T20:31:05;97577.48;;;-2.85;72.04
24302;BME280;12421;49.732;20.078;2023-03-16T20:41:31;97582.74;;;-2.86;72.80
24302;BME280;12421;49.732;20.078;2023-03-16T20:51:34;97587.60;;;-2.99;72.57
24302;BME280;12421;49.732;20.078;2023-03-16T21:01:37;97587.69;;;-3.07;73.03
24302;BME280;12421;49.732;20.078;2023-03-16T21:11:46;97599.52;;;-3.07;73.19
24302;BME280;12421;49.732;20.078;2023-03-16T21:21:50;97603.92;;;-3.31;73.00
24302;BME280;12421;49.732;20.078;2023-03-16T21:31:54;97600.94;;;-3.54;73.45
24302;BME280;12421;49.732;20.078;2023-03-16T21:41:57;97600.08;;;-3.70;74.02
24302;BME280;12421;49.732;20.078;2023-03-16T21:52:01;97596.20;;;-3.84;74.19
24302;BME280;12421;49.732;20.078;2023-03-16T22:12:19;97588.29;;;-3.85;74.82
24302;BME280;12421;49.732;20.078;2023-03-16T22:22:22;97594.85;;;-3.93;74.85
24302;BME280;12421;49.732;20.078;2023-03-16T22:32:26;97603.33;;;-3.95;74.77
24302;BME280;12421;49.732;20.078;2023-03-16T22:42:32;97604.29;;;-4.18;74.99
24302;BME280;12421;49.732;20.078;2023-03-16T22:52:39;97594.99;;;-4.39;75.25
24302;BME280;12421;49.732;20.078;2023-03-16T23:02:42;97588.59;;;-4.52;75.81
24302;BME280;12421;49.732;20.078;2023-03-16T23:12:48;97588.98;;;-4.54;76.09
24302;BME280;12421;49.732;20.078;2023-03-16T23:22:53;97581.11;;;-4.54;76.55
24302;BME280;12421;49.732;20.078;2023-03-16T23:32:56;97570.04;;;-4.59;76.24
24302;BME280;12421;49.732;20.078;2023-03-16T23:43:00;97568.92;;;-4.70;76.30
24302;BME280;12421;49.732;20.078;2023-03-16T23:53:10;97574.68;;;-4.74;75.96
